Celestyal Crystal — 9HA2978 — position and weather

sailwx.info

Track history (hours):
 
Tides and Currents Weather Stations Pressure Air Temp Water Temp Dewpoint Dewpoint Depression Visibility Wind Speed Wind Dir Waves Ship Positions

Celestyal Crystal

Last reported at 2015-May-25 23:27 UTC. Time now 2015-May-26 15:54 UTC.
Position N 35°41' E 025°39'.

Length 162 m; draft 6.1 m.

Type: Passenger vessel. MMSI: 229001000.

Date/timePositionNaut miles runAvg speedWind from/ knotsBaromVisibWave heightAir tempDewpointWater temp
2015-May-25 23:27N 35°41' E 025°39'12 6.4
2015-May-25 21:32N 35°50' E 025°30'6 3.0
2015-May-25 19:33N 35°56' E 025°29'1311.0
2015-May-25 18:21N 36°04' E 025°42'7 9.1
2015-May-25 17:33N 36°10' E 025°36'1211.8
2015-May-25 16:33N 36°16' E 025°24'6 6.5
2015-May-25 15:33N 36°23' E 025°23'3 2.8
2015-May-25 14:33N 36°25' E 025°25'0 0.1
2015-May-25 13:33N 36°25' E 025°25'0 0.1
2015-May-25 12:33N 36°25' E 025°25'0 0.0
2015-May-25 11:33N 36°25' E 025°25'0 0.0
2015-May-25 10:30N 36°25' E 025°25'0 0.0
2015-May-25 09:33N 36°25' E 025°25'0 0.0
2015-May-25 08:33N 36°25' E 025°25'0 0.0
2015-May-25 07:34N 36°25' E 025°25'0 0.0
2015-May-25 06:33N 36°25' E 025°25'0 0.0
2015-May-25 05:30N 36°25' E 025°25'7 6.0
2015-May-25 04:19N 36°32' E 025°24'911.8
2015-May-25 03:33N 36°39' E 025°31'1211.4
2015-May-25 02:33N 36°47' E 025°40'1312.8
2015-May-25 01:33N 36°56' E 025°52'1312.6
2015-May-25 00:32N 37°05' E 026°04'166 7.5
2015-May-24 02:26N 39°50' E 025°50'13215.9
2015-May-23 18:09N 40°52' E 028°23'1116.8
2015-May-23 17:31N 40°53' E 028°37'1616.6
2015-May-23 16:33N 40°58' E 028°57'151 7.0
2015-May-22 19:04N 39°55' E 025°57'14516.8
2015-May-22 10:25N 37°51' E 024°21'26 2.4
2015-May-21 23:16N 37°32' E 024°44'810.8
2015-May-21 22:33N 37°32' E 024°53'1110.6
2015-May-21 21:33N 37°30' E 025°06'1010.0
2015-May-21 20:32N 37°28' E 025°19'0 0.0
2015-May-21 19:31N 37°28' E 025°19'0 0.0
2015-May-21 18:31N 37°28' E 025°19'0 0.0
2015-May-21 17:29N 37°28' E 025°19'0 0.0
2015-May-21 16:32N 37°28' E 025°19'0 0.0
2015-May-21 15:28N 37°28' E 025°19'0 0.0
2015-May-21 14:31N 37°28' E 025°19'5 4.9
2015-May-21 13:33N 37°33' E 025°20'1515.4
2015-May-21 12:34N 37°43' E 025°34'72 5.0
2015-May-20 22:17N 37°13' E 026°56'2915.9
2015-May-20 20:27N 36°54' E 027°23'56 2.5
2015-May-19 22:10N 35°60' E 027°06'812.4
2015-May-19 21:33N 35°55' E 026°58'1211.8
2015-May-19 20:33N 35°48' E 026°47'1211.6
2015-May-19 19:33N 35°41' E 026°35'1211.8
2015-May-19 18:33N 35°34' E 026°23'33 2.1
2015-May-19 02:33N 35°18' E 025°48'1111.4
2015-May-19 01:33N 35°29' E 025°45'1110.6
2015-May-19 00:33N 35°39' E 025°40'11 5.2
2015-May-18 22:31N 35°48' E 025°35'5 5.0
2015-May-18 21:33N 35°53' E 025°33'5 4.7
2015-May-18 20:28N 35°58' E 025°31'4 4.4
2015-May-18 19:32N 36°01' E 025°29'5 5.3
2015-May-18 18:33N 36°06' E 025°27'6 5.6
2015-May-18 17:33N 36°12' E 025°24'6 6.2
2015-May-18 16:32N 36°17' E 025°21'5 5.2
2015-May-18 15:32N 36°23' E 025°22'3 3.1
2015-May-18 14:31N 36°25' E 025°25'0 0.0
2015-May-18 13:28N 36°25' E 025°25'0 0.0
2015-May-18 12:31N 36°25' E 025°25'0 0.1
2015-May-18 11:31N 36°25' E 025°25'0 0.0
2015-May-18 10:31N 36°25' E 025°25'0 0.0
2015-May-18 09:31N 36°25' E 025°25'0 0.0
2015-May-18 08:31N 36°25' E 025°25'0 0.0
2015-May-18 07:31N 36°25' E 025°25'4 1.5
2015-May-18 04:33N 36°28' E 025°21'1717.1
2015-May-18 03:33N 36°42' E 025°34'1717.3
2015-May-18 02:33N 36°54' E 025°49'1917.3
2015-May-18 01:28N 37°07' E 026°07'62 4.1
2015-May-17 10:18N 38°02' E 026°43'3015.0
2015-May-17 08:17N 38°21' E 026°13'  
Track history (hours):
 
Tides and Currents Weather Stations Pressure Air Temp Water Temp Dewpoint Dewpoint Depression Visibility Wind Speed Wind Dir Waves Ship Positions

Celestyal Crystal

Last reported at 2015-May-25 23:27 UTC. Time now 2015-May-26 15:54 UTC.
Position N 35°41' E 025°39'.

Length 162 m; draft 6.1 m.

Type: Passenger vessel. MMSI: 229001000.

Date/timePositionNaut miles runAvg speedWind from/ knotsBaromVisibWave heightAir tempDewpointWater temp
2015-May-25 23:27N 35°41' E 025°39'12 6.4
2015-May-25 21:32N 35°50' E 025°30'6 3.0
2015-May-25 19:33N 35°56' E 025°29'1311.0
2015-May-25 18:21N 36°04' E 025°42'7 9.1
2015-May-25 17:33N 36°10' E 025°36'1211.8
2015-May-25 16:33N 36°16' E 025°24'6 6.5
2015-May-25 15:33N 36°23' E 025°23'3 2.8
2015-May-25 14:33N 36°25' E 025°25'0 0.1
2015-May-25 13:33N 36°25' E 025°25'0 0.1
2015-May-25 12:33N 36°25' E 025°25'0 0.0
2015-May-25 11:33N 36°25' E 025°25'0 0.0
2015-May-25 10:30N 36°25' E 025°25'0 0.0
2015-May-25 09:33N 36°25' E 025°25'0 0.0
2015-May-25 08:33N 36°25' E 025°25'0 0.0
2015-May-25 07:34N 36°25' E 025°25'0 0.0
2015-May-25 06:33N 36°25' E 025°25'0 0.0
2015-May-25 05:30N 36°25' E 025°25'7 6.0
2015-May-25 04:19N 36°32' E 025°24'911.8
2015-May-25 03:33N 36°39' E 025°31'1211.4
2015-May-25 02:33N 36°47' E 025°40'1312.8
2015-May-25 01:33N 36°56' E 025°52'1312.6
2015-May-25 00:32N 37°05' E 026°04'166 7.5
2015-May-24 02:26N 39°50' E 025°50'13215.9
2015-May-23 18:09N 40°52' E 028°23'1116.8
2015-May-23 17:31N 40°53' E 028°37'1616.6
2015-May-23 16:33N 40°58' E 028°57'151 7.0
2015-May-22 19:04N 39°55' E 025°57'14516.8
2015-May-22 10:25N 37°51' E 024°21'26 2.4
2015-May-21 23:16N 37°32' E 024°44'810.8
2015-May-21 22:33N 37°32' E 024°53'1110.6
2015-May-21 21:33N 37°30' E 025°06'1010.0
2015-May-21 20:32N 37°28' E 025°19'0 0.0
2015-May-21 19:31N 37°28' E 025°19'0 0.0
2015-May-21 18:31N 37°28' E 025°19'0 0.0
2015-May-21 17:29N 37°28' E 025°19'0 0.0
2015-May-21 16:32N 37°28' E 025°19'0 0.0
2015-May-21 15:28N 37°28' E 025°19'0 0.0
2015-May-21 14:31N 37°28' E 025°19'5 4.9
2015-May-21 13:33N 37°33' E 025°20'1515.4
2015-May-21 12:34N 37°43' E 025°34'72 5.0
2015-May-20 22:17N 37°13' E 026°56'2915.9
2015-May-20 20:27N 36°54' E 027°23'56 2.5
2015-May-19 22:10N 35°60' E 027°06'812.4
2015-May-19 21:33N 35°55' E 026°58'1211.8
2015-May-19 20:33N 35°48' E 026°47'1211.6
2015-May-19 19:33N 35°41' E 026°35'1211.8
2015-May-19 18:33N 35°34' E 026°23'33 2.1
2015-May-19 02:33N 35°18' E 025°48'1111.4
2015-May-19 01:33N 35°29' E 025°45'1110.6
2015-May-19 00:33N 35°39' E 025°40'11 5.2
2015-May-18 22:31N 35°48' E 025°35'5 5.0
2015-May-18 21:33N 35°53' E 025°33'5 4.7
2015-May-18 20:28N 35°58' E 025°31'4 4.4
2015-May-18 19:32N 36°01' E 025°29'5 5.3
2015-May-18 18:33N 36°06' E 025°27'6 5.6
2015-May-18 17:33N 36°12' E 025°24'6 6.2
2015-May-18 16:32N 36°17' E 025°21'5 5.2
2015-May-18 15:32N 36°23' E 025°22'3 3.1
2015-May-18 14:31N 36°25' E 025°25'0 0.0
2015-May-18 13:28N 36°25' E 025°25'0 0.0
2015-May-18 12:31N 36°25' E 025°25'0 0.1
2015-May-18 11:31N 36°25' E 025°25'0 0.0
2015-May-18 10:31N 36°25' E 025°25'0 0.0
2015-May-18 09:31N 36°25' E 025°25'0 0.0
2015-May-18 08:31N 36°25' E 025°25'0 0.0
2015-May-18 07:31N 36°25' E 025°25'4 1.5
2015-May-18 04:33N 36°28' E 025°21'1717.1
2015-May-18 03:33N 36°42' E 025°34'1717.3
2015-May-18 02:33N 36°54' E 025°49'1917.3
2015-May-18 01:28N 37°07' E 026°07'62 4.1
2015-May-17 10:18N 38°02' E 026°43'3015.0
2015-May-17 08:17N 38°21' E 026°13'  

Dump ship's entire track history